createdAt,value
2019-02-25T00:00:36.908Z,60.23
2019-02-25T00:03:06.335Z,60.25
2019-02-25T00:05:35.212Z,60.87
2019-02-25T00:08:04.137Z,54.63
2019-02-25T00:10:34.322Z,57.75
2019-02-25T00:13:03.211Z,58.17
2019-02-25T00:15:31.792Z,56.60
2019-02-25T00:18:00.677Z,58.13
2019-02-25T00:20:29.878Z,54.93
2019-02-25T00:23:31.844Z,57.67
2019-02-25T00:26:00.731Z,57.60
2019-02-25T00:29:02.281Z,58.23
2019-02-25T00:31:31.477Z,53.13
2019-02-25T00:34:06.307Z,54.40
2019-02-25T00:36:35.506Z,55.00
2019-02-25T00:39:07.362Z,58.28
2019-02-25T00:41:35.907Z,57.80
2019-02-25T00:44:04.652Z,59.90
2019-02-25T00:46:51.642Z,58.80
2019-02-25T00:49:20.540Z,55.00
2019-02-25T00:54:48.529Z,54.33
2019-02-25T00:57:23.144Z,55.83
2019-02-25T00:59:52.025Z,58.53
2019-02-25T01:02:20.818Z,57.27
2019-02-25T01:04:49.706Z,60.97
2019-02-25T01:07:18.574Z,59.27
2019-02-25T01:10:08.068Z,62.73
2019-02-25T01:12:36.962Z,60.73
2019-02-25T01:18:01.873Z,58.23
2019-02-25T01:20:30.758Z,54.30
2019-02-25T01:22:59.345Z,62.00
2019-02-25T01:25:28.234Z,57.33
2019-02-25T01:27:57.121Z,54.45
2019-02-25T01:33:08.816Z,58.63
2019-02-25T01:35:37.715Z,54.47
2019-02-25T01:38:06.713Z,56.30
2019-02-25T01:40:35.902Z,54.48
2019-02-25T01:43:06.229Z,58.56
2019-02-25T01:45:35.174Z,59.43
2019-02-25T01:48:04.202Z,57.90
2019-02-25T01:50:47.737Z,64.25
2019-02-25T01:53:16.630Z,53.85
2019-02-25T01:56:15.795Z,57.53
2019-02-25T01:58:44.609Z,59.43
2019-02-25T02:01:13.506Z,60.20
2019-02-25T02:03:42.389Z,60.63
2019-02-25T02:06:11.184Z,60.97
2019-02-25T02:08:57.856Z,60.95
2019-02-25T02:11:26.464Z,64.47
2019-02-25T02:13:59.345Z,57.57
2019-02-25T02:16:28.239Z,59.07
2019-02-25T02:21:51.437Z,53.58
2019-02-25T02:24:19.997Z,48.17
2019-02-25T02:27:01.273Z,49.20
2019-02-25T02:29:30.166Z,55.23
2019-02-25T02:31:58.934Z,54.93
2019-02-25T02:37:15.366Z,47.17
2019-02-25T02:39:44.201Z,53.60
2019-02-25T02:42:32.407Z,55.57
2019-02-25T02:45:01.207Z,54.03
2019-02-25T02:48:09.809Z,53.83
2019-02-25T02:50:38.708Z,56.10
2019-02-25T02:53:22.633Z,55.30
2019-02-25T02:55:51.534Z,53.90
2019-02-25T02:58:20.305Z,54.73
2019-02-25T03:00:49.427Z,53.80
2019-02-25T03:03:18.291Z,53.35
2019-02-25T03:05:47.399Z,53.70
2019-02-25T03:08:16.175Z,59.37
2019-02-25T03:11:10.766Z,53.03
2019-02-25T03:13:39.651Z,53.47
2019-02-25T03:16:17.449Z,58.47
2019-02-25T03:18:53.915Z,53.98
2019-02-25T03:21:22.909Z,60.95
2019-02-25T03:23:52.109Z,55.33
2019-02-25T03:26:21.093Z,50.43
2019-02-25T03:28:49.986Z,50.63
2019-02-25T03:31:18.918Z,48.45
2019-02-25T03:34:08.724Z,52.93
2019-02-25T03:36:37.536Z,50.40
2019-02-25T03:39:13.086Z,52.33
2019-02-25T03:41:41.874Z,55.17
2019-02-25T03:44:17.013Z,51.30
2019-02-25T03:46:45.901Z,55.87
2019-02-25T03:49:14.790Z,52.38
2019-02-25T03:51:43.798Z,53.73
2019-02-25T03:54:12.460Z,59.37
2019-02-25T03:59:42.654Z,52.85
2019-02-25T04:02:14.363Z,54.20
2019-02-25T04:04:43.251Z,54.93
2019-02-25T04:07:11.839Z,56.90
2019-02-25T04:09:40.720Z,57.83
2019-02-25T04:12:09.299Z,58.40
2019-02-25T04:14:38.197Z,60.90
2019-02-25T04:17:06.977Z,65.10
2019-02-25T04:22:34.444Z,70.63
2019-02-25T04:25:39.688Z,67.53
2019-02-25T04:28:08.593Z,61.57
2019-02-25T04:31:06.959Z,59.67
2019-02-25T04:33:35.857Z,65.87
2019-02-25T04:36:04.736Z,62.07
2019-02-25T04:38:33.624Z,70.67
2019-02-25T04:41:02.510Z,72.43
2019-02-25T04:43:31.913Z,63.63
2019-02-25T04:46:00.809Z,64.70
2019-02-25T04:48:31.541Z,66.23
2019-02-25T04:51:00.515Z,63.13
2019-02-25T04:54:33.412Z,64.77
2019-02-25T04:56:18.071Z,60.20
2019-02-25T04:58:47.158Z,60.73
2019-02-25T05:01:16.051Z,56.70
2019-02-25T05:03:45.247Z,53.85
2019-02-25T05:06:13.834Z,52.07
2019-02-25T05:08:51.164Z,47.93
2019-02-25T05:11:22.589Z,48.50
2019-02-25T05:13:51.887Z,48.13
2019-02-25T05:16:22.291Z,52.00
2019-02-25T05:18:50.875Z,51.85
2019-02-25T05:21:19.642Z,50.10
2019-02-25T05:23:48.551Z,47.80
2019-02-25T05:26:17.133Z,52.17
2019-02-25T05:28:46.017Z,47.83
2019-02-25T05:31:42.157Z,45.83
2019-02-25T05:34:10.731Z,50.37
2019-02-25T05:37:43.467Z,51.30
2019-02-25T05:39:15.384Z,50.23
2019-02-25T05:41:43.951Z,48.08
2019-02-25T05:44:13.350Z,47.83
2019-02-25T05:46:42.241Z,45.50
2019-02-25T05:49:11.126Z,46.84
2019-02-25T05:51:40.022Z,49.57
2019-02-25T05:57:07.495Z,53.40
2019-02-25T05:59:36.401Z,53.37
2019-02-25T06:02:06.071Z,48.87
2019-02-25T06:04:34.999Z,49.93
2019-02-25T06:07:03.746Z,46.33
2019-02-25T06:09:32.552Z,48.80
2019-02-25T06:12:01.238Z,53.70
2019-02-25T06:14:30.127Z,52.17
2019-02-25T06:16:59.014Z,65.40
2019-02-25T06:19:27.902Z,70.63
2019-02-25T06:21:56.992Z,66.13
2019-02-25T06:24:26.010Z,60.83
2019-02-25T06:26:54.875Z,57.73
2019-02-25T06:29:26.447Z,49.87
2019-02-25T06:31:55.372Z,57.07
2019-02-25T06:34:27.381Z,58.47
2019-02-25T06:36:56.687Z,58.13
2019-02-25T06:39:31.922Z,68.37
2019-02-25T06:42:00.705Z,66.23
2019-02-25T06:44:30.131Z,62.27
2019-02-25T06:47:00.021Z,65.47
2019-02-25T06:49:28.909Z,69.80
2019-02-25T06:51:58.130Z,66.57
2019-02-25T06:54:27.222Z,69.93
2019-02-25T06:57:20.274Z,62.87
2019-02-25T06:59:48.837Z,66.47
2019-02-25T07:02:26.331Z,63.83
2019-02-25T07:04:56.718Z,65.87
2019-02-25T07:07:27.385Z,60.75
2019-02-25T07:09:57.932Z,57.97
2019-02-25T07:12:28.463Z,56.60
2019-02-25T07:15:01.957Z,53.23
2019-02-25T07:17:35.453Z,58.97
2019-02-25T07:20:12.912Z,58.07
2019-02-25T07:22:43.364Z,66.17
2019-02-25T07:25:29.666Z,58.87
2019-02-25T07:28:16.665Z,57.23
2019-02-25T07:30:47.089Z,60.17
2019-02-25T07:33:17.214Z,68.40
2019-02-25T07:35:53.591Z,67.77
2019-02-25T07:38:40.473Z,80.75
2019-02-25T07:41:17.147Z,87.70
2019-02-25T07:43:47.577Z,79.32
2019-02-25T07:46:17.799Z,81.27
2019-02-25T07:48:48.221Z,73.07
2019-02-25T07:51:21.306Z,67.33
2019-02-25T07:53:57.591Z,64.73
2019-02-25T07:56:33.526Z,50.15
2019-02-25T08:01:47.788Z,54.05
2019-02-25T08:04:18.358Z,56.77
2019-02-25T08:06:49.069Z,53.17
2019-02-25T08:09:19.382Z,52.90
2019-02-25T08:11:49.594Z,52.65
2019-02-25T08:14:19.913Z,52.73
2019-02-25T08:16:59.242Z,56.85
2019-02-25T08:19:36.047Z,57.63
2019-02-25T08:22:17.510Z,63.50
2019-02-25T08:24:47.930Z,72.87
2019-02-25T08:27:18.159Z,66.93
2019-02-25T08:29:57.810Z,62.20
2019-02-25T08:32:34.589Z,70.13
2019-02-25T08:35:07.579Z,63.35
2019-02-25T08:37:39.508Z,59.47
2019-02-25T08:40:11.690Z,68.93
2019-02-25T08:42:41.897Z,72.62
2019-02-25T08:45:15.214Z,76.50
2019-02-25T08:47:48.585Z,71.83
2019-02-25T08:50:17.179Z,68.80
2019-02-25T08:52:46.183Z,72.63
2019-02-25T08:55:15.051Z,93.60
2019-02-25T08:57:44.268Z,83.70
2019-02-25T09:00:21.939Z,69.15
2019-02-25T09:02:50.239Z,52.10
2019-02-25T09:05:18.977Z,50.40
2019-02-25T09:07:48.093Z,49.38
2019-02-25T09:10:17.034Z,50.93
2019-02-25T09:12:45.876Z,56.90
2019-02-25T09:15:15.305Z,49.90
2019-02-25T09:17:44.283Z,43.60
2019-02-25T09:20:15.007Z,39.23
2019-02-25T09:22:44.194Z,45.30
2019-02-25T09:25:13.911Z,41.40
2019-02-25T09:27:42.814Z,36.13
2019-02-25T09:30:15.780Z,40.03
2019-02-25T09:32:45.385Z,48.00
2019-02-25T09:35:14.693Z,42.90
2019-02-25T09:37:43.780Z,41.53
2019-02-25T09:40:19.002Z,51.63
2019-02-25T09:42:47.794Z,38.90
2019-02-25T09:45:17.430Z,39.08
2019-02-25T09:47:46.606Z,35.63
2019-02-25T09:50:16.593Z,31.07
2019-02-25T09:52:45.414Z,30.13
2019-02-25T09:55:14.834Z,26.50
2019-02-25T09:57:43.694Z,24.43
2019-02-25T10:00:14.962Z,24.37
2019-02-25T10:02:43.833Z,29.20
2019-02-25T10:05:12.723Z,22.37
2019-02-25T10:07:41.735Z,29.20
2019-02-25T10:10:13.079Z,23.32
2019-02-25T10:12:41.958Z,26.07
2019-02-25T10:15:12.268Z,21.35
2019-02-25T10:17:41.578Z,18.17
2019-02-25T10:20:10.269Z,18.43
2019-02-25T10:22:39.555Z,18.27
2019-02-25T10:25:09.487Z,22.95
2019-02-25T10:27:38.372Z,28.60
2019-02-25T10:30:09.311Z,25.13
2019-02-25T10:32:37.878Z,21.10
2019-02-25T10:35:09.386Z,20.50
2019-02-25T10:37:38.859Z,22.40
2019-02-25T10:40:13.233Z,18.23
2019-02-25T10:42:42.259Z,16.90
2019-02-25T10:45:13.505Z,17.45
2019-02-25T10:47:44.241Z,17.33
2019-02-25T10:50:14.337Z,15.40
2019-02-25T10:52:44.795Z,14.40
2019-02-25T10:55:17.950Z,13.80
2019-02-25T10:57:47.267Z,18.10
2019-02-25T11:00:43.792Z,17.53
2019-02-25T11:02:55.947Z,20.30
2019-02-25T11:05:25.940Z,19.07
2019-02-25T11:07:54.683Z,16.60
2019-02-25T11:10:32.475Z,18.13
2019-02-25T11:13:02.186Z,15.70
2019-02-25T11:15:33.220Z,18.57
2019-02-25T11:18:02.422Z,20.85
2019-02-25T11:20:33.403Z,17.53
2019-02-25T11:23:03.053Z,18.42
2019-02-25T11:25:31.980Z,17.77
2019-02-25T11:28:00.538Z,22.07
2019-02-25T11:30:29.648Z,22.20
2019-02-25T11:33:00.014Z,21.15
2019-02-25T11:35:29.980Z,19.50
2019-02-25T11:38:01.086Z,17.67
2019-02-25T11:40:31.248Z,19.07
2019-02-25T11:43:00.233Z,20.20
2019-02-25T11:45:29.138Z,17.45
2019-02-25T11:47:59.562Z,18.60
2019-02-25T11:50:28.338Z,18.77
2019-02-25T11:52:58.752Z,17.63
2019-02-25T11:55:27.955Z,19.73
2019-02-25T11:57:57.042Z,22.87
2019-02-25T12:00:28.931Z,20.00
2019-02-25T12:02:59.534Z,17.23
2019-02-25T12:05:28.236Z,20.10
2019-02-25T12:08:00.085Z,23.15
2019-02-25T12:10:29.872Z,24.00
2019-02-25T12:12:58.781Z,18.60
2019-02-25T12:15:27.870Z,17.57
2019-02-25T12:18:14.882Z,18.53
2019-02-25T12:20:43.878Z,18.13
2019-02-25T12:23:43.285Z,18.20
2019-02-25T12:26:12.188Z,19.17
2019-02-25T12:28:40.960Z,17.75
2019-02-25T12:31:09.639Z,19.37
2019-02-25T12:33:38.531Z,20.77
2019-02-25T12:36:07.127Z,19.00
2019-02-25T12:38:36.516Z,19.93
2019-02-25T12:41:06.242Z,18.16
2019-02-25T12:43:35.101Z,21.20
2019-02-25T12:46:03.690Z,20.50
2019-02-25T12:48:32.500Z,21.05
2019-02-25T12:51:01.372Z,19.00
2019-02-25T12:53:30.180Z,19.17
2019-02-25T12:55:59.048Z,17.67
2019-02-25T12:58:27.933Z,18.33
2019-02-25T13:01:00.299Z,20.20
2019-02-25T13:03:28.984Z,18.15
2019-02-25T13:05:58.287Z,17.67
2019-02-25T13:08:26.865Z,19.62
2019-02-25T13:10:56.599Z,17.82
2019-02-25T13:13:25.471Z,21.67
2019-02-25T13:15:54.584Z,19.13
2019-02-25T13:18:24.681Z,16.62
2019-02-25T13:20:54.395Z,19.05
2019-02-25T13:23:23.197Z,18.73
2019-02-25T13:25:52.374Z,19.30
2019-02-25T13:28:21.807Z,20.23
2019-02-25T13:30:51.482Z,17.27
2019-02-25T13:33:20.191Z,19.90
2019-02-25T13:35:48.752Z,20.72
2019-02-25T13:38:17.968Z,19.37
2019-02-25T13:40:48.057Z,22.23
2019-02-25T13:43:16.967Z,26.05
2019-02-25T13:45:45.966Z,23.53
2019-02-25T13:48:14.957Z,23.90
2019-02-25T13:50:43.948Z,23.77
2019-02-25T13:53:12.712Z,24.67
2019-02-25T13:55:42.632Z,25.60
2019-02-25T13:58:11.209Z,23.40
2019-02-25T14:00:40.101Z,26.13
2019-02-25T14:03:08.990Z,22.90
2019-02-25T14:05:38.000Z,24.80
2019-02-25T14:08:06.525Z,26.23
2019-02-25T14:10:35.141Z,24.67
2019-02-25T14:13:06.614Z,25.58
2019-02-25T14:15:37.741Z,25.60
2019-02-25T14:18:06.321Z,26.02
2019-02-25T14:20:35.205Z,23.77
2019-02-25T14:23:03.994Z,27.20
2019-02-25T14:25:35.663Z,26.90
2019-02-25T14:28:08.137Z,23.82
2019-02-25T14:30:37.840Z,25.40
2019-02-25T14:33:08.075Z,22.98
2019-02-25T14:35:36.743Z,29.60
2019-02-25T14:38:10.861Z,27.56
2019-02-25T14:40:39.727Z,26.48
2019-02-25T14:43:12.712Z,28.65
2019-02-25T14:45:41.986Z,28.10
2019-02-25T14:48:10.787Z,24.98
2019-02-25T14:50:40.318Z,30.20
2019-02-25T14:53:11.621Z,27.95
2019-02-25T14:55:40.676Z,25.12
2019-02-25T14:58:12.420Z,32.37
2019-02-25T15:00:40.834Z,25.23
2019-02-25T15:03:09.461Z,23.02
2019-02-25T15:05:38.365Z,32.23
2019-02-25T15:08:06.870Z,27.65
2019-02-25T15:10:36.317Z,26.68
2019-02-25T15:13:08.474Z,27.73
2019-02-25T15:15:39.088Z,22.65
2019-02-25T15:18:08.060Z,24.60
2019-02-25T15:20:37.326Z,29.85
2019-02-25T15:23:07.467Z,29.20
2019-02-25T15:25:40.245Z,28.60
2019-02-25T15:28:09.349Z,33.73
2019-02-25T15:30:37.716Z,36.13
2019-02-25T15:33:06.587Z,28.05
2019-02-25T15:35:36.972Z,27.52
2019-02-25T15:38:06.837Z,26.35
2019-02-25T15:40:35.816Z,26.52
2019-02-25T15:43:10.421Z,29.44
2019-02-25T15:45:40.631Z,29.73
2019-02-25T15:48:12.978Z,25.30
2019-02-25T15:50:46.141Z,27.20
2019-02-25T15:53:16.020Z,30.47
2019-02-25T15:55:45.331Z,28.40
2019-02-25T15:58:14.656Z,28.20
2019-02-25T16:00:44.581Z,27.13
2019-02-25T16:03:14.244Z,34.50
2019-02-25T16:05:44.596Z,29.72
2019-02-25T16:08:16.240Z,31.37
2019-02-25T16:10:44.501Z,29.20
2019-02-25T16:13:14.252Z,29.43
2019-02-25T16:15:43.730Z,30.32
2019-02-25T16:18:14.086Z,26.67
2019-02-25T16:20:45.730Z,30.07
2019-02-25T16:23:13.982Z,27.77
2019-02-25T16:25:43.758Z,28.25
2019-02-25T16:28:14.823Z,29.67
2019-02-25T16:30:44.644Z,30.80
2019-02-25T16:33:14.544Z,27.77
2019-02-25T16:35:45.595Z,24.50
2019-02-25T16:38:14.462Z,27.27
2019-02-25T16:40:43.357Z,28.50
2019-02-25T16:43:12.686Z,30.30
2019-02-25T16:45:44.628Z,28.40
2019-02-25T16:48:12.810Z,25.92
2019-02-25T16:50:43.908Z,28.70
2019-02-25T16:53:13.416Z,30.67
2019-02-25T16:55:44.618Z,28.15
2019-02-25T16:58:13.543Z,29.98
2019-02-25T17:00:43.270Z,28.50
2019-02-25T17:03:13.689Z,28.93
2019-02-25T17:05:44.907Z,167.00
2019-02-25T17:08:14.774Z,29.67
2019-02-25T17:10:43.855Z,62.00
2019-02-25T17:13:14.843Z,76.73
2019-02-25T17:15:46.014Z,144.53
2019-02-25T17:18:15.813Z,245.80
2019-02-25T17:20:49.797Z,241.77
2019-02-25T17:23:16.382Z,243.20
2019-02-25T17:25:45.605Z,242.90
2019-02-25T17:28:15.352Z,115.37
2019-02-25T17:30:59.861Z,120.42
2019-02-25T17:33:30.352Z,102.27
2019-02-25T17:39:00.725Z,120.87
2019-02-25T17:42:01.466Z,129.17
2019-02-25T17:44:32.135Z,109.47
2019-02-25T17:50:01.314Z,115.12
2019-02-25T17:52:30.501Z,117.05
2019-02-25T17:54:59.102Z,117.75
2019-02-25T17:57:29.860Z,124.07
2019-02-25T17:59:58.786Z,114.80
2019-02-25T18:02:29.581Z,122.13
2019-02-25T18:04:59.026Z,137.93
2019-02-25T18:13:08.584Z,142.35
2019-02-25T18:15:39.422Z,138.20
2019-02-25T18:18:11.767Z,169.93
2019-02-25T18:20:39.988Z,176.70
2019-02-25T18:23:09.038Z,162.90
2019-02-25T18:25:39.514Z,141.35
2019-02-25T18:28:08.506Z,134.83
2019-02-25T18:30:40.179Z,124.20
2019-02-25T18:33:09.455Z,118.20
2019-02-25T18:35:40.593Z,122.05
2019-02-25T18:38:09.560Z,120.02
2019-02-25T18:40:40.824Z,100.03
2019-02-25T18:43:09.134Z,78.70
2019-02-25T18:45:41.033Z,72.83
2019-02-25T18:48:10.621Z,67.10
2019-02-25T18:50:39.595Z,65.20
2019-02-25T18:53:08.691Z,58.90
2019-02-25T18:55:37.605Z,58.57
2019-02-25T18:58:09.622Z,65.73
2019-02-25T19:00:45.469Z,58.40
2019-02-25T19:03:13.669Z,61.10
2019-02-25T19:05:43.112Z,57.73
2019-02-25T19:08:17.189Z,50.50
2019-02-25T19:10:47.948Z,51.93
2019-02-25T19:13:18.549Z,51.53
2019-02-25T19:15:46.722Z,48.35
2019-02-25T19:18:17.698Z,47.62
2019-02-25T19:20:48.164Z,53.20
2019-02-25T19:23:17.225Z,52.97
2019-02-25T19:25:45.977Z,59.58
2019-02-25T19:28:18.871Z,60.40
2019-02-25T19:30:46.936Z,67.22
2019-02-25T19:33:20.428Z,63.67
2019-02-25T19:35:49.555Z,62.43
2019-02-25T19:38:19.161Z,54.00
2019-02-25T19:40:51.279Z,54.00
2019-02-25T19:43:18.257Z,66.90
2019-02-25T19:45:47.438Z,64.32
2019-02-25T19:48:19.249Z,76.40
2019-02-25T19:50:51.397Z,113.03
2019-02-25T19:53:20.257Z,81.43
2019-02-25T19:55:51.262Z,86.60
2019-02-25T19:58:19.790Z,81.17
2019-02-25T20:00:50.687Z,80.57
2019-02-25T20:03:19.203Z,73.73
2019-02-25T20:05:51.394Z,63.00
2019-02-25T20:08:19.746Z,70.47
2019-02-25T20:10:48.310Z,69.07
2019-02-25T20:13:17.402Z,103.42
2019-02-25T20:15:46.732Z,97.40
2019-02-25T20:18:18.401Z,87.37
2019-02-25T20:20:47.670Z,91.50
2019-02-25T20:23:16.543Z,91.67
2019-02-25T20:25:48.448Z,85.17
2019-02-25T20:28:18.136Z,83.50
2019-02-25T20:30:46.914Z,74.73
2019-02-25T20:33:16.504Z,77.87
2019-02-25T20:35:50.908Z,81.30
2019-02-25T20:38:16.598Z,80.33
2019-02-25T20:40:49.048Z,104.93
2019-02-25T20:43:19.293Z,90.93
2019-02-25T20:45:48.164Z,104.30
2019-02-25T20:48:16.801Z,120.00
2019-02-25T20:50:45.886Z,125.72
2019-02-25T20:53:14.599Z,110.67
2019-02-25T20:55:44.802Z,103.07
2019-02-25T20:58:14.459Z,94.00
2019-02-25T21:00:46.547Z,73.67
2019-02-25T21:03:16.682Z,87.97
2019-02-25T21:05:46.455Z,94.37
2019-02-25T21:08:16.909Z,99.70
2019-02-25T21:10:46.134Z,103.67
2019-02-25T21:13:14.629Z,76.87
2019-02-25T21:15:45.416Z,70.23
2019-02-25T21:18:31.477Z,76.10
2019-02-25T21:21:07.229Z,70.85
2019-02-25T21:23:35.126Z,64.67
2019-02-25T21:26:06.305Z,63.75
2019-02-25T21:28:36.472Z,52.05
2019-02-25T21:31:10.994Z,53.22
2019-02-25T21:33:37.148Z,52.27
2019-02-25T21:36:07.171Z,53.00
2019-02-25T21:38:36.082Z,63.65
2019-02-25T21:41:07.433Z,66.77
2019-02-25T21:43:36.804Z,64.83
2019-02-25T21:46:06.640Z,58.57
2019-02-25T21:48:36.978Z,54.17
2019-02-25T21:51:07.995Z,56.53
2019-02-25T21:53:36.982Z,58.05
2019-02-25T21:56:06.677Z,59.07
2019-02-25T21:58:35.202Z,87.33
2019-02-25T22:01:04.370Z,68.17
2019-02-25T22:03:37.047Z,61.80
2019-02-25T22:06:05.790Z,59.87
2019-02-25T22:08:36.059Z,81.77
2019-02-25T22:11:12.393Z,72.03
2019-02-25T22:13:36.681Z,67.33
2019-02-25T22:16:07.837Z,58.60
2019-02-25T22:18:36.609Z,57.63
2019-02-25T22:21:09.187Z,61.50
2019-02-25T22:23:37.187Z,66.45
2019-02-25T22:26:06.659Z,68.33
2019-02-25T22:28:37.611Z,66.60
2019-02-25T22:31:08.898Z,64.82
2019-02-25T22:33:37.110Z,72.20
2019-02-25T22:36:06.823Z,73.45
2019-02-25T22:38:35.715Z,68.37
2019-02-25T22:41:05.733Z,62.50
2019-02-25T22:43:36.730Z,59.63
2019-02-25T22:46:07.644Z,76.17
2019-02-25T22:48:37.648Z,73.80
2019-02-25T22:51:07.433Z,66.27
2019-02-25T22:53:36.328Z,66.40
2019-02-25T22:56:09.063Z,75.03
2019-02-25T22:58:38.346Z,70.83
2019-02-25T23:01:08.617Z,67.87
2019-02-25T23:03:40.931Z,70.40
2019-02-25T23:06:11.276Z,67.00
2019-02-25T23:08:42.072Z,73.72
2019-02-25T23:11:12.530Z,90.50
2019-02-25T23:13:45.739Z,114.75
2019-02-25T23:16:15.609Z,105.40
2019-02-25T23:18:44.767Z,95.67
2019-02-25T23:21:23.237Z,93.40
2019-02-25T23:23:44.494Z,92.83
2019-02-25T23:26:14.810Z,100.50
2019-02-25T23:28:43.713Z,87.30
2019-02-25T23:31:14.478Z,92.53
2019-02-25T23:33:44.301Z,88.03
2019-02-25T23:36:14.889Z,100.23
2019-02-25T23:38:45.406Z,93.25
2019-02-25T23:41:14.598Z,90.00
2019-02-25T23:43:46.987Z,86.67
2019-02-25T23:46:16.068Z,85.27
2019-02-25T23:48:46.536Z,77.27
2019-02-25T23:51:17.283Z,77.42
2019-02-25T23:53:46.539Z,83.83
2019-02-25T23:56:18.970Z,82.12
2019-02-25T23:58:47.976Z,81.03
